createdAt,value
2022-11-29T00:03:22.619Z,99908.06
2022-11-29T00:08:24.058Z,99901.56
2022-11-29T00:13:25.416Z,99898.00
2022-11-29T00:18:26.787Z,99894.69
2022-11-29T00:23:28.211Z,99900.47
2022-11-29T00:28:29.578Z,99898.84
2022-11-29T00:33:30.991Z,99896.94
2022-11-29T00:38:32.359Z,99892.31
2022-11-29T00:43:33.764Z,99890.31
2022-11-29T00:48:35.235Z,99894.91
2022-11-29T00:53:36.675Z,99893.41
2022-11-29T00:58:38.113Z,99890.88
2022-11-29T01:03:39.638Z,99896.34
2022-11-29T01:08:41.049Z,99894.44
2022-11-29T01:13:42.502Z,99896.94
2022-11-29T01:18:43.885Z,99896.59
2022-11-29T01:23:45.671Z,99899.06
2022-11-29T01:28:47.815Z,99896.34
2022-11-29T01:33:49.248Z,99889.47
2022-11-29T01:38:50.617Z,99901.78
2022-11-29T01:44:13.006Z,99900.38
2022-11-29T01:49:16.707Z,99902.97
2022-11-29T01:54:18.119Z,99909.00
2022-11-29T01:59:23.631Z,99912.69
2022-11-29T02:04:25.006Z,99898.00
2022-11-29T02:09:26.428Z,99905.59
2022-11-29T02:14:49.409Z,99908.91
2022-11-29T02:20:12.471Z,99917.81
2022-11-29T02:25:54.857Z,99914.38
2022-11-29T02:31:11.526Z,99920.88
2022-11-29T02:36:22.112Z,99924.06
2022-11-29T02:41:45.147Z,99926.31
2022-11-29T02:46:55.855Z,99922.53
2022-11-29T02:52:19.359Z,99924.44
2022-11-29T02:57:29.594Z,99928.81
2022-11-29T03:03:09.019Z,99931.78
2022-11-29T03:08:48.292Z,99931.56
2022-11-29T03:14:11.404Z,99934.16
2022-11-29T03:19:53.858Z,99936.63
2022-11-29T03:25:07.828Z,99946.94
2022-11-29T03:30:11.261Z,99948.00
2022-11-29T03:35:46.298Z,99952.16
2022-11-29T03:41:04.042Z,99953.81
2022-11-29T03:46:09.318Z,99959.50
2022-11-29T03:51:36.543Z,99961.16
2022-11-29T03:56:39.542Z,99959.88
2022-11-29T04:02:20.591Z,99956.31
2022-11-29T04:07:31.257Z,99957.59
2022-11-29T04:12:57.256Z,99960.94
2022-11-29T04:18:32.055Z,99955.13
2022-11-29T04:23:52.627Z,99960.94
2022-11-29T04:29:14.777Z,99966.50
2022-11-29T04:34:24.980Z,99960.94
2022-11-29T04:39:56.371Z,99973.97
2022-11-29T04:45:15.973Z,99973.97
2022-11-29T04:50:31.023Z,99971.47
2022-11-29T04:55:41.273Z,99984.84
2022-11-29T05:00:49.709Z,99980.84
2022-11-29T05:05:59.303Z,99993.28
2022-11-29T05:11:00.508Z,99988.88
2022-11-29T05:16:31.559Z,99997.66
2022-11-29T05:21:43.111Z,99999.31
2022-11-29T05:27:10.227Z,100004.56
2022-11-29T05:32:34.791Z,100001.22
2022-11-29T05:38:01.204Z,100004.78
2022-11-29T05:43:20.740Z,100009.50
2022-11-29T05:48:29.811Z,100008.72
2022-11-29T05:53:36.491Z,100016.41
2022-11-29T05:58:48.104Z,100015.94
2022-11-29T06:04:04.610Z,100023.50
2022-11-29T06:09:26.116Z,100020.56
2022-11-29T06:14:45.850Z,100025.41
2022-11-29T06:20:19.006Z,100036.69
2022-11-29T06:25:47.211Z,100037.50
2022-11-29T06:31:09.497Z,100051.38
2022-11-29T06:36:19.875Z,100049.72
2022-11-29T06:41:22.807Z,100050.78
2022-11-29T06:46:29.798Z,100047.13
2022-11-29T06:52:22.220Z,100045.63
2022-11-29T06:57:57.568Z,100045.25
2022-11-29T07:03:06.618Z,100056.66
2022-11-29T07:08:18.559Z,100057.06
2022-11-29T07:13:20.272Z,100064.31
2022-11-29T07:18:27.959Z,100064.78
2022-11-29T07:23:38.405Z,100074.41
2022-11-29T07:28:54.959Z,100074.28
2022-11-29T07:34:21.028Z,100070.72
2022-11-29T07:39:32.580Z,100082.13
2022-11-29T07:44:58.763Z,100090.53
2022-11-29T07:50:00.133Z,100104.66
2022-11-29T07:55:01.995Z,100114.16
2022-11-29T08:00:04.075Z,100117.84
2022-11-29T08:05:05.772Z,100112.75
2022-11-29T08:10:11.892Z,100112.75
2022-11-29T08:15:13.472Z,100122.22
2022-11-29T08:20:15.416Z,100110.00
2022-11-29T08:25:16.823Z,100117.47
2022-11-29T08:30:18.751Z,100123.66
2022-11-29T08:35:21.424Z,100112.38
2022-11-29T08:40:24.198Z,100110.28
2022-11-29T08:45:25.839Z,100115.59
2022-11-29T08:50:27.455Z,100124.25
2022-11-29T08:55:32.349Z,100127.91
2022-11-29T09:00:34.098Z,100131.13
2022-11-29T09:05:36.325Z,100138.72
2022-11-29T09:10:39.446Z,100152.97
2022-11-29T09:15:42.005Z,100161.28
2022-11-29T09:20:43.973Z,100166.03
2022-11-29T09:25:48.712Z,100164.50
2022-11-29T09:30:50.522Z,100160.69
2022-11-29T09:35:51.992Z,100166.50
2022-11-29T09:40:55.379Z,100170.44
2022-11-29T09:46:26.457Z,100173.53
2022-11-29T09:51:44.551Z,100183.75
2022-11-29T09:56:47.263Z,100169.06
2022-11-29T10:01:54.631Z,100174.06
2022-11-29T10:07:21.365Z,100167.28
2022-11-29T10:12:45.754Z,100159.31
2022-11-29T10:17:49.557Z,100165.84
2022-11-29T10:23:02.707Z,100178.91
2022-11-29T10:28:04.822Z,100184.97
2022-11-29T10:33:14.494Z,100166.81
2022-11-29T10:38:30.700Z,100169.66
2022-11-29T10:43:32.533Z,100172.47
2022-11-29T10:48:33.935Z,100169.75
2022-11-29T10:53:38.475Z,100166.81
2022-11-29T10:59:03.146Z,100172.13
2022-11-29T11:04:07.185Z,100179.47
2022-11-29T11:09:20.436Z,100170.78
2022-11-29T11:14:32.125Z,100177.84
2022-11-29T11:19:34.095Z,100177.72
2022-11-29T11:24:40.443Z,100178.03
2022-11-29T11:29:42.949Z,100185.91
2022-11-29T11:34:54.924Z,100182.44
2022-11-29T11:39:58.110Z,100189.56
2022-11-29T11:44:59.693Z,100194.44
2022-11-29T11:50:03.807Z,100188.19
2022-11-29T11:55:16.633Z,100202.16
2022-11-29T12:01:02.972Z,100209.91
2022-11-29T12:06:24.540Z,100194.13
2022-11-29T12:11:25.945Z,100197.53
2022-11-29T12:16:33.396Z,100209.06
2022-11-29T12:21:37.476Z,100202.03
2022-11-29T12:32:18.927Z,100207.16
2022-11-29T12:37:35.435Z,100206.78
2022-11-29T12:42:41.900Z,100216.06
2022-11-29T12:48:08.940Z,100218.22
2022-11-29T12:53:13.267Z,100216.78
2022-11-29T12:58:41.324Z,100216.78
2022-11-29T13:04:28.466Z,100219.88
2022-11-29T13:09:47.983Z,100231.75
2022-11-29T13:15:01.926Z,100222.00
2022-11-29T13:20:41.530Z,100237.09
2022-11-29T13:25:44.003Z,100232.38
2022-11-29T13:30:45.375Z,100239.00
2022-11-29T13:36:12.453Z,100246.50
2022-11-29T13:41:26.619Z,100244.72
2022-11-29T13:46:49.923Z,100260.28
2022-11-29T13:52:04.028Z,100266.94
2022-11-29T13:57:06.675Z,100277.97
2022-11-29T14:02:34.515Z,100270.63
2022-11-29T14:07:36.400Z,100274.75
2022-11-29T14:12:40.741Z,100273.81
2022-11-29T14:17:55.982Z,100276.06
2022-11-29T14:23:07.631Z,100279.59
2022-11-29T14:28:11.963Z,100274.50
2022-11-29T14:33:13.171Z,100279.75
2022-11-29T14:38:19.327Z,100279.41
2022-11-29T14:43:29.145Z,100285.34
2022-11-29T14:48:30.610Z,100282.25
2022-11-29T14:53:33.737Z,100292.22
2022-11-29T14:58:35.107Z,100299.00
2022-11-29T15:03:38.943Z,100287.63
2022-11-29T15:08:48.236Z,100300.69
2022-11-29T15:14:19.206Z,100301.38
2022-11-29T15:19:57.593Z,100302.22
2022-11-29T15:25:12.784Z,100316.72
2022-11-29T15:30:18.948Z,100311.84
2022-11-29T15:35:20.431Z,100317.41
2022-11-29T15:40:23.429Z,100336.56
2022-11-29T15:45:35.118Z,100337.41
2022-11-29T15:50:36.529Z,100335.00
2022-11-29T15:55:37.899Z,100343.22
2022-11-29T16:00:39.340Z,100347.94
2022-11-29T16:05:40.792Z,100355.66
2022-11-29T16:10:49.152Z,100345.56
2022-11-29T16:16:06.825Z,100354.88
2022-11-29T16:21:25.312Z,100356.25
2022-11-29T16:26:30.147Z,100367.19
2022-11-29T16:31:36.062Z,100372.75
2022-11-29T16:36:37.531Z,100368.50
2022-11-29T16:41:38.930Z,100380.56
2022-11-29T16:46:40.323Z,100382.47
2022-11-29T16:51:47.867Z,100381.75
2022-11-29T16:56:52.496Z,100386.84
2022-11-29T17:01:53.924Z,100391.47
2022-11-29T17:06:55.695Z,100386.44
2022-11-29T17:12:01.529Z,100393.44
2022-11-29T17:17:02.843Z,100397.09
2022-11-29T17:22:04.265Z,100394.56
2022-11-29T17:27:05.705Z,100394.44
2022-11-29T17:32:07.135Z,100396.34
2022-11-29T17:37:08.556Z,100406.06
2022-11-29T17:42:11.947Z,100401.88
2022-11-29T17:47:13.344Z,100421.69
2022-11-29T17:52:14.719Z,100422.28
2022-11-29T17:57:16.365Z,100427.97
2022-11-29T18:02:17.791Z,100428.19
2022-11-29T18:07:19.317Z,100434.75
2022-11-29T18:12:22.359Z,100433.66
2022-11-29T18:17:23.732Z,100442.31
2022-11-29T18:22:25.097Z,100429.72
2022-11-29T18:27:26.459Z,100429.72
2022-11-29T18:32:27.856Z,100441.69
2022-11-29T18:38:05.104Z,100437.53
2022-11-29T18:42:50.943Z,100436.69
2022-11-29T18:47:52.303Z,100440.03
2022-11-29T18:52:55.540Z,100440.28
2022-11-29T18:57:56.943Z,100439.88
2022-11-29T19:02:58.352Z,100441.31
2022-11-29T19:07:59.869Z,100444.50
2022-11-29T19:13:01.302Z,100451.50
2022-11-29T19:18:02.673Z,100453.78
2022-11-29T19:23:04.045Z,100457.09
2022-11-29T19:28:09.475Z,100464.53
2022-11-29T19:33:15.196Z,100461.13
2022-11-29T19:38:16.598Z,100455.66
2022-11-29T19:43:18.117Z,100464.31
2022-11-29T19:48:19.541Z,100468.47
2022-11-29T19:53:20.911Z,100474.16
2022-11-29T19:58:22.398Z,100470.00
2022-11-29T20:03:23.796Z,100476.66
2022-11-29T20:08:25.191Z,100474.16
2022-11-29T20:13:26.632Z,100473.78
2022-11-29T20:18:32.387Z,100490.75
2022-11-29T20:23:33.861Z,100502.97
2022-11-29T20:28:35.657Z,100501.69
2022-11-29T20:33:37.032Z,100498.09
2022-11-29T20:38:45.639Z,100498.78
2022-11-29T20:43:57.886Z,100502.50
2022-11-29T20:49:05.993Z,100502.97
2022-11-29T20:54:10.404Z,100502.13
2022-11-29T20:59:11.763Z,100507.13
2022-11-29T21:04:13.220Z,100502.50
2022-11-29T21:09:14.659Z,100502.13
2022-11-29T21:14:16.233Z,100510.56
2022-11-29T21:19:19.492Z,100500.69
2022-11-29T21:24:42.592Z,100507.19
2022-11-29T21:29:44.067Z,100510.38
2022-11-29T21:34:45.746Z,100514.31
2022-11-29T21:39:47.677Z,100524.84
2022-11-29T21:44:49.257Z,100517.50
2022-11-29T21:49:52.617Z,100519.19
2022-11-29T21:54:55.088Z,100531.38
2022-11-29T21:59:56.756Z,100524.41
2022-11-29T22:04:58.132Z,100524.41
2022-11-29T22:10:09.936Z,100516.66
2022-11-29T22:15:19.094Z,100516.66
2022-11-29T22:20:23.006Z,100523.56
2022-11-29T22:25:24.391Z,100520.28
2022-11-29T22:30:25.799Z,100535.16
2022-11-29T22:35:27.175Z,100528.66
2022-11-29T22:40:28.543Z,100526.97
2022-11-29T22:45:29.914Z,100525.31
2022-11-29T22:50:31.278Z,100528.66
2022-11-29T22:55:32.644Z,100521.06
2022-11-29T23:00:35.858Z,100523.66
2022-11-29T23:05:37.288Z,100530.31
2022-11-29T23:10:38.667Z,100532.19
2022-11-29T23:15:40.067Z,100534.31
2022-11-29T23:20:41.440Z,100537.44
2022-11-29T23:25:49.427Z,100538.13
2022-11-29T23:30:51.089Z,100530.75
2022-11-29T23:36:01.872Z,100540.63
2022-11-29T23:41:03.749Z,100538.78
2022-11-29T23:46:09.661Z,100538.72
2022-11-29T23:51:11.002Z,100537.28
2022-11-29T23:56:13.896Z,100528.88
